Time;durP1;ratioP1;P1;durP2;ratioP2;P2;SDS_P1;SDS_P2;PMS_P1;PMS_P2;Temp;Humidity;BMP_temperature;BMP_pressure;BME280_temperature;BME280_humidity;BME280_pressure;Samples;Min_cycle;Max_cycle;Signal;HPM_P1;HPM_P2
2022/05/30 00:01:51;;;;;;;6.25;3.67;;;;;;;10.74;95.68;99072.28;5011313;28;20049;-77
2022/05/30 00:04:17;;;;;;;6.50;3.53;;;;;;;10.63;95.96;99057.28;5011520;28;20037;-77
2022/05/30 00:06:42;;;;;;;5.00;3.42;;;;;;;10.69;95.68;99058.69;5011306;28;20061;-77
2022/05/30 00:09:08;;;;;;;5.40;3.13;;;;;;;10.67;95.65;99053.59;5011765;28;20400;-77
2022/05/30 00:11:35;;;;;;;6.75;3.20;;;;;;;10.70;95.82;99061.22;5011077;28;20041;-77
2022/05/30 00:14:01;;;;;;;5.25;3.30;;;;;;;10.58;95.77;99046.28;5011297;28;20042;-77
2022/05/30 00:16:26;;;;;;;5.63;2.95;;;;;;;10.63;95.89;99051.25;5043964;28;20044;-77
2022/05/30 00:18:52;;;;;;;4.30;3.15;;;;;;;10.58;96.51;99054.09;5053528;28;20369;-78
2022/05/30 00:21:20;;;;;;;5.80;3.15;;;;;;;10.66;96.98;99057.13;5053657;28;20090;-77
2022/05/30 00:23:45;;;;;;;5.90;3.45;;;;;;;10.65;97.17;99057.19;5053552;28;20029;-77
2022/05/30 00:26:11;;;;;;;5.85;3.25;;;;;;;10.64;97.34;99051.13;5053379;28;20051;-77
2022/05/30 00:28:36;;;;;;;5.60;3.47;;;;;;;10.70;97.21;99057.75;5052968;28;20029;-77
2022/05/30 00:31:03;;;;;;;3.92;2.78;;;;;;;10.71;96.87;99052.47;5053204;28;20013;-78
2022/05/30 00:33:29;;;;;;;6.10;3.53;;;;;;;10.71;96.86;99049.03;5053067;28;20037;-77
2022/05/30 00:35:54;;;;;;;4.07;3.45;;;;;;;10.66;96.61;99044.09;5034972;28;20068;-77
2022/05/30 00:38:20;;;;;;;5.88;3.40;;;;;;;10.66;96.47;99035.41;5052553;28;20465;-77
2022/05/30 00:40:46;;;;;;;7.75;3.83;;;;;;;10.72;96.34;99046.34;5052448;28;20025;-77
2022/05/30 00:43:20;;;;;;;11.05;7.07;;;;;;;10.70;96.26;99039.53;5053190;28;20035;-77
2022/05/30 00:45:46;;;;;;;12.43;5.97;;;;;;;10.62;96.86;99028.69;5052536;28;20057;-78
2022/05/30 00:48:11;;;;;;;5.95;4.63;;;;;;;10.63;97.54;99033.00;5052880;28;20056;-77
2022/05/30 00:50:38;;;;;;;7.90;5.47;;;;;;;10.62;97.71;99040.00;5052449;28;20465;-78
2022/05/30 00:53:04;;;;;;;8.55;5.78;;;;;;;10.59;97.82;99026.28;5053077;28;20032;-77
2022/05/30 00:55:31;;;;;;;6.88;4.80;;;;;;;10.55;97.85;99028.22;5052339;28;20056;-77
2022/05/30 00:57:56;;;;;;;9.00;4.45;;;;;;;10.59;97.76;99028.91;5052336;28;20506;-78
2022/05/30 01:00:25;;;;;;;6.20;3.83;;;;;;;10.58;97.77;99032.44;5052534;28;20028;-77
2022/05/30 01:08:23;;;;;;;9.77;6.05;;;;;;;10.42;97.63;99015.06;5052714;28;20048;-78
2022/05/30 01:10:49;;;;;;;13.23;6.75;;;;;;;10.43;98.02;99023.72;5052395;28;20033;-78
2022/05/30 01:13:14;;;;;;;8.38;5.80;;;;;;;10.37;98.10;99027.50;5052811;28;20036;-78
2022/05/30 01:15:40;;;;;;;7.65;5.13;;;;;;;10.27;98.55;99022.88;5052166;28;20035;-77
2022/05/30 01:18:17;;;;;;;11.93;5.60;;;;;;;10.20;99.31;99019.75;5052430;28;20028;-77
2022/05/30 01:21:29;;;;;;;6.45;4.25;;;;;;;10.20;100.00;99035.38;5052016;28;20084;-77
2022/05/30 01:24:14;;;;;;;6.15;3.30;;;;;;;10.09;100.00;99022.94;5052079;28;20396;-78
2022/05/30 01:26:55;;;;;;;4.70;3.47;;;;;;;10.06;100.00;99030.91;5051983;28;20028;-78
2022/05/30 01:29:25;;;;;;;4.75;3.17;;;;;;;10.02;100.00;99028.53;5052151;28;20041;-77
2022/05/30 01:31:53;;;;;;;6.03;3.08;;;;;;;9.99;100.00;99035.63;5052141;28;20035;-77
2022/05/30 01:34:22;;;;;;;5.97;3.20;;;;;;;9.95;100.00;99023.69;5052277;28;20025;-77
2022/05/30 01:36:47;;;;;;;4.55;3.25;;;;;;;9.99;100.00;99027.81;5052041;28;20036;-78
2022/05/30 01:39:13;;;;;;;4.45;3.35;;;;;;;10.01;100.00;99022.50;5052073;28;20419;-78
2022/05/30 01:41:38;;;;;;;4.45;3.22;;;;;;;10.04;100.00;99021.53;5034009;28;20123;-78
2022/05/30 01:44:03;;;;;;;7.30;3.38;;;;;;;9.97;100.00;99024.44;5051618;28;20369;-78
2022/05/30 01:46:29;;;;;;;6.82;3.80;;;;;;;10.00;100.00;99024.28;5052383;28;20040;-77
2022/05/30 01:48:54;;;;;;;3.95;3.15;;;;;;;10.04;100.00;99022.34;5051946;28;20040;-78
2022/05/30 01:51:22;;;;;;;6.30;3.40;;;;;;;10.07;100.00;99042.16;5051721;28;20037;-77
2022/05/30 01:53:49;;;;;;;4.55;3.55;;;;;;;10.06;100.00;99030.06;5051328;28;20032;-77
2022/05/30 01:56:14;;;;;;;5.68;3.55;;;;;;;9.96;100.00;99012.34;5051965;28;20032;-77
2022/05/30 01:58:40;;;;;;;4.63;3.33;;;;;;;10.07;100.00;99032.59;5051978;28;20029;-78
2022/05/30 02:01:15;;;;;;;5.10;3.38;;;;;;;9.97;100.00;99016.63;5052186;28;20568;-78
2022/05/30 02:03:40;;;;;;;6.00;3.70;;;;;;;10.02;100.00;99023.34;5051817;28;20021;-77
2022/05/30 02:06:06;;;;;;;6.63;3.58;;;;;;;9.98;100.00;99028.72;5051808;28;20499;-77
2022/05/30 02:08:31;;;;;;;6.20;3.42;;;;;;;10.00;100.00;99028.66;5051804;28;20021;-77
2022/05/30 02:10:56;;;;;;;4.65;3.40;;;;;;;10.03;100.00;99035.44;5051474;28;20116;-78
2022/05/30 02:13:22;;;;;;;4.45;3.30;;;;;;;10.01;100.00;99038.13;5051589;28;20025;-77
2022/05/30 02:18:32;;;;;;;6.28;3.55;;;;;;;10.03;100.00;99033.69;5051878;28;20098;-77
2022/05/30 02:20:57;;;;;;;8.25;3.25;;;;;;;9.91;100.00;99018.75;5051407;28;20033;-78
2022/05/30 02:23:23;;;;;;;4.85;3.55;;;;;;;9.99;100.00;99038.22;5051543;28;20107;-78
2022/05/30 02:25:48;;;;;;;6.55;3.80;;;;;;;9.96;100.00;99027.13;5051248;28;20037;-78
2022/05/30 02:28:14;;;;;;;4.00;3.38;;;;;;;9.99;100.00;99024.38;5051490;28;20104;-78
2022/05/30 02:30:40;;;;;;;9.68;4.32;;;;;;;9.96;100.00;99017.56;5051471;28;20029;-77
2022/05/30 02:38:33;;;;;;;7.05;4.20;;;;;;;9.97;100.00;99018.41;5051422;28;20032;-78
2022/05/30 02:40:59;;;;;;;6.55;4.10;;;;;;;10.02;100.00;99032.00;5051332;28;20021;-78
2022/05/30 02:43:24;;;;;;;6.47;3.85;;;;;;;10.02;100.00;99034.59;5051493;28;20480;-78
2022/05/30 02:45:49;;;;;;;8.55;4.70;;;;;;;9.96;100.00;99027.97;5051598;28;20033;-78
2022/05/30 02:48:15;;;;;;;5.18;4.05;;;;;;;9.97;100.00;99034.00;5051267;28;20027;-78
2022/05/30 02:50:40;;;;;;;5.60;3.67;;;;;;;9.92;100.00;99026.44;5051170;28;20457;-77
2022/05/30 02:53:06;;;;;;;5.47;3.92;;;;;;;9.98;100.00;99035.69;5051248;28;20064;-78
2022/05/30 02:55:31;;;;;;;9.77;4.95;;;;;;;9.98;100.00;99038.28;5050981;28;20041;-77
2022/05/30 02:57:56;;;;;;;8.75;4.63;;;;;;;10.01;100.00;99040.72;5051130;28;20428;-77
2022/05/30 03:00:26;;;;;;;8.18;4.68;;;;;;;9.98;100.00;99028.72;5051111;28;20033;-78
2022/05/30 03:02:52;;;;;;;7.53;4.28;;;;;;;10.01;100.00;99035.53;5052931;28;20017;-78
2022/05/30 03:05:17;;;;;;;7.68;4.70;;;;;;;9.98;100.00;99033.91;5054741;28;20033;-78
2022/05/30 03:07:43;;;;;;;7.68;4.50;;;;;;;10.01;100.00;99032.91;5054945;28;20109;-77
2022/05/30 03:10:08;;;;;;;7.00;4.50;;;;;;;10.01;100.00;99038.13;5054672;28;20476;-78
2022/05/30 03:12:34;;;;;;;6.97;5.40;;;;;;;10.08;100.00;99042.06;5054646;28;20395;-78
2022/05/30 03:14:59;;;;;;;7.78;4.72;;;;;;;10.07;100.00;99030.00;5054447;28;20174;-77
2022/05/30 03:17:24;;;;;;;8.30;5.18;;;;;;;10.11;100.00;99033.25;5054606;28;20025;-78
2022/05/30 03:19:51;;;;;;;6.32;4.75;;;;;;;10.03;100.00;99022.41;5054509;28;20035;-77
2022/05/30 03:22:16;;;;;;;6.32;5.13;;;;;;;10.01;100.00;99027.72;5054697;28;20379;-78
2022/05/30 03:24:42;;;;;;;7.05;5.28;;;;;;;10.05;100.00;99036.19;5036724;28;20037;-78
2022/05/30 03:27:07;;;;;;;8.27;5.28;;;;;;;10.00;100.00;99044.25;5054301;28;20021;-78
2022/05/30 03:29:32;;;;;;;6.57;4.63;;;;;;;9.96;100.00;99043.56;5036526;28;20086;-77
2022/05/30 03:31:58;;;;;;;5.75;4.88;;;;;;;9.88;100.00;99037.09;5054032;28;20060;-78
2022/05/30 03:34:23;;;;;;;7.10;5.53;;;;;;;9.87;100.00;99038.88;5054144;28;20104;-78
2022/05/30 03:36:49;;;;;;;7.43;4.88;;;;;;;9.87;100.00;99044.06;5054152;28;20021;-78
2022/05/30 03:39:14;;;;;;;8.30;4.70;;;;;;;9.89;100.00;99051.78;5036469;28;20118;-77
2022/05/30 03:41:40;;;;;;;8.05;5.70;;;;;;;9.88;100.00;99053.53;5054233;28;20118;-78
2022/05/30 03:44:05;;;;;;;9.25;5.10;;;;;;;9.87;100.00;99048.44;5053939;28;20029;-77
2022/05/30 03:46:32;;;;;;;7.35;5.20;;;;;;;9.89;100.00;99051.78;5054108;28;20016;-78
2022/05/30 03:48:57;;;;;;;8.98;5.90;;;;;;;9.86;100.00;99047.59;5053596;28;20539;-78
2022/05/30 03:51:23;;;;;;;9.85;6.10;;;;;;;9.97;100.00;99060.84;5054161;28;20108;-78
2022/05/30 03:53:51;;;;;;;8.13;6.07;;;;;;;10.00;100.00;99055.50;5053627;28;20059;-78
2022/05/30 03:56:16;;;;;;;9.65;6.55;;;;;;;10.06;100.00;99059.53;5053844;28;20037;-78
2022/05/30 03:58:41;;;;;;;7.45;6.15;;;;;;;10.09;100.00;99055.94;5035995;28;20031;-78
2022/05/30 04:01:08;;;;;;;10.27;5.85;;;;;;;10.17;100.00;99064.16;5053552;28;20052;-77
2022/05/30 04:03:34;;;;;;;11.05;6.45;;;;;;;10.16;100.00;99067.69;5053600;28;20016;-77
2022/05/30 04:06:00;;;;;;;8.15;6.05;;;;;;;10.16;100.00;99063.31;5035690;28;20465;-77
2022/05/30 04:08:25;;;;;;;9.98;6.57;;;;;;;10.18;100.00;99071.88;5053619;28;20028;-78
2022/05/30 04:10:51;;;;;;;10.82;6.60;;;;;;;10.14;100.00;99072.13;5053278;28;20080;-78
2022/05/30 04:13:16;;;;;;;7.63;6.20;;;;;;;10.14;100.00;99070.34;5053480;28;20473;-78
2022/05/30 04:15:41;;;;;;;10.52;7.22;;;;;;;10.06;100.00;99058.69;5053235;28;20060;-77
2022/05/30 04:18:07;;;;;;;9.90;7.55;;;;;;;10.09;100.00;99076.75;5052952;28;20460;-77
2022/05/30 04:20:32;;;;;;;14.77;8.73;;;;;;;10.07;100.00;99076.84;5035304;28;20024;-77
2022/05/30 04:22:59;;;;;;;11.88;8.23;;;;;;;10.08;100.00;99072.47;5053192;28;20037;-77
2022/05/30 04:25:24;;;;;;;8.88;7.18;;;;;;;10.08;100.00;99072.47;5035330;28;20443;-77
2022/05/30 04:27:50;;;;;;;7.28;5.43;;;;;;;10.17;100.00;99077.16;5052992;28;20025;-77
2022/05/30 04:30:16;;;;;;;11.00;5.60;;;;;;;10.22;100.00;99083.78;5053195;28;20033;-78
2022/05/30 04:32:42;;;;;;;10.63;5.15;;;;;;;10.23;100.00;99079.44;5035198;28;20506;-77
2022/05/30 04:35:09;;;;;;;7.45;5.72;;;;;;;10.24;100.00;99073.31;5052991;28;20065;-78
2022/05/30 04:37:34;;;;;;;7.50;5.20;;;;;;;10.31;100.00;99071.25;5053269;28;20023;-78
2022/05/30 04:40:00;;;;;;;10.25;5.43;;;;;;;10.38;100.00;99070.00;5052909;28;20540;-77
2022/05/30 04:42:25;;;;;;;8.57;5.47;;;;;;;10.52;100.00;99072.66;5052902;28;20029;-77
2022/05/30 04:44:51;;;;;;;8.30;5.07;;;;;;;10.68;100.00;99078.69;5052887;28;20461;-77
2022/05/30 04:47:16;;;;;;;10.65;5.50;;;;;;;10.80;100.00;99068.53;5052877;28;20380;-77
2022/05/30 04:49:42;;;;;;;7.15;5.15;;;;;;;11.06;100.00;99080.88;5034704;28;20029;-77
2022/05/30 04:52:07;;;;;;;9.35;5.40;;;;;;;11.21;100.00;99069.59;5052540;28;20029;-77
2022/05/30 04:54:33;;;;;;;9.30;6.10;;;;;;;11.34;100.00;99071.47;5052539;28;20056;-77
2022/05/30 04:56:59;;;;;;;8.00;5.97;;;;;;;11.57;98.52;99080.53;5052521;28;20483;-77
2022/05/30 04:59:24;;;;;;;7.65;5.70;;;;;;;11.83;97.45;99066.78;5052969;28;20025;-77
2022/05/30 05:01:50;;;;;;;8.32;5.75;;;;;;;12.18;95.24;99072.44;5052539;28;20029;-77
2022/05/30 05:04:15;;;;;;;10.07;5.68;;;;;;;12.52;93.25;99074.72;5052679;28;20098;-77
2022/05/30 05:06:43;;;;;;;8.60;5.55;;;;;;;12.70;91.17;99058.69;5052925;28;20029;-77
2022/05/30 05:09:18;;;;;;;8.00;5.10;;;;;;;13.04;88.82;99071.31;5052466;28;20041;-77
2022/05/30 05:11:45;;;;;;;9.10;4.78;;;;;;;13.26;86.53;99068.16;5052653;28;20053;-77
2022/05/30 05:14:11;;;;;;;9.27;4.85;;;;;;;13.41;84.92;99067.13;5052281;28;20060;-77
2022/05/30 05:16:37;;;;;;;8.73;4.55;;;;;;;13.72;83.63;99081.56;5052188;28;20057;-77
2022/05/30 05:19:04;;;;;;;9.07;5.05;;;;;;;14.00;81.78;99079.69;5052313;28;20147;-77
2022/05/30 05:21:35;;;;;;;7.97;4.60;;;;;;;14.11;80.57;99071.88;5052392;28;20025;-77
2022/05/30 05:24:02;;;;;;;9.70;5.00;;;;;;;14.03;79.99;99074.19;5052089;28;20112;-77
2022/05/30 05:26:28;;;;;;;6.82;4.38;;;;;;;13.85;79.94;99076.31;5051772;28;20032;-77
2022/05/30 05:28:56;;;;;;;7.25;4.82;;;;;;;13.59;79.83;99063.25;5051881;28;20094;-77
2022/05/30 05:31:33;;;;;;;5.88;4.03;;;;;;;13.52;80.00;99079.47;5034388;28;20025;-77
2022/05/30 05:33:59;;;;;;;10.13;4.68;;;;;;;13.42;80.11;99077.47;5051759;28;20508;-77
2022/05/30 05:36:27;;;;;;;7.38;4.25;;;;;;;13.46;80.65;99089.41;5051904;28;20096;-77
2022/05/30 05:38:53;;;;;;;6.43;4.65;;;;;;;13.41;80.71;99080.22;5051874;28;20432;-77
2022/05/30 05:41:19;;;;;;;9.02;4.80;;;;;;;13.47;80.91;99098.09;5051687;28;20037;-77
2022/05/30 05:43:44;;;;;;;10.07;4.80;;;;;;;13.42;80.75;99080.09;5051854;28;20024;-77
2022/05/30 05:46:18;;;;;;;5.93;4.53;;;;;;;13.48;80.63;99084.94;5051915;28;20109;-77
2022/05/30 05:48:44;;;;;;;10.50;5.45;;;;;;;13.50;80.46;99081.38;5051757;28;20044;-77
2022/05/30 05:51:10;;;;;;;9.95;4.82;;;;;;;13.50;80.65;99084.81;5051933;28;20025;-77
2022/05/30 05:53:36;;;;;;;6.53;4.75;;;;;;;13.58;80.50;99090.38;5051874;28;20162;-77
2022/05/30 05:56:12;;;;;;;8.77;4.60;;;;;;;13.81;80.07;99091.41;5051346;28;20053;-77
2022/05/30 05:58:37;;;;;;;5.88;4.13;;;;;;;13.96;78.69;99084.28;5051959;28;20025;-77
2022/05/30 06:01:16;;;;;;;7.18;4.10;;;;;;;14.30;77.64;99085.38;5051626;28;20029;-77
2022/05/30 06:03:41;;;;;;;5.95;4.25;;;;;;;14.59;76.29;99075.47;5051710;28;20031;-77
2022/05/30 06:06:07;;;;;;;7.53;4.55;;;;;;;14.93;75.27;99081.69;5051579;28;20025;-77
2022/05/30 06:08:34;;;;;;;6.85;4.63;;;;;;;15.26;73.73;99085.41;5051590;28;20029;-77
2022/05/30 06:11:08;;;;;;;6.90;4.50;;;;;;;15.54;72.34;99086.75;5051383;28;20468;-77
2022/05/30 06:13:37;;;;;;;7.10;4.63;;;;;;;15.79;71.60;99091.00;5051795;28;20112;-77
2022/05/30 06:16:12;;;;;;;6.20;4.22;;;;;;;15.95;71.01;99088.03;5051458;28;20435;-77
2022/05/30 06:18:38;;;;;;;6.93;4.97;;;;;;;15.90;70.83;99084.94;5051640;28;20691;-77
2022/05/30 06:21:05;;;;;;;5.53;4.10;;;;;;;15.95;70.98;99090.66;5051250;28;20033;-77
2022/05/30 06:23:30;;;;;;;6.72;4.78;;;;;;;15.96;70.87;99093.16;5034005;28;20017;-77
2022/05/30 06:25:55;;;;;;;6.65;4.63;;;;;;;15.96;71.32;99089.69;5051811;28;20024;-77
2022/05/30 06:28:22;;;;;;;7.15;4.93;;;;;;;16.06;70.09;99087.22;5051344;28;20036;-77
2022/05/30 06:30:47;;;;;;;5.88;4.65;;;;;;;16.07;70.20;99092.34;5051477;28;20465;-77
2022/05/30 06:33:13;;;;;;;5.53;4.63;;;;;;;16.14;69.63;99092.69;5033337;28;20025;-77
2022/05/30 06:35:44;;;;;;;7.97;4.30;;;;;;;16.25;68.80;99079.53;5051321;28;20033;-77
2022/05/30 06:38:11;;;;;;;7.15;4.13;;;;;;;16.63;67.01;99094.88;5053969;28;20107;-77
2022/05/30 06:40:36;;;;;;;6.43;4.25;;;;;;;17.66;63.14;99095.19;5055440;28;20075;-77
2022/05/30 06:43:02;;;;;;;5.93;4.05;;;;;;;17.85;61.29;99101.53;5037272;28;20025;-77
2022/05/30 06:45:28;;;;;;;6.38;4.40;;;;;;;18.30;59.26;99101.16;5055261;28;20033;-77
2022/05/30 06:47:53;;;;;;;10.20;4.88;;;;;;;18.57;57.55;99103.19;5037313;28;20025;-77
2022/05/30 06:50:19;;;;;;;5.50;4.70;;;;;;;18.40;57.85;99107.28;5054663;28;20036;-77
2022/05/30 06:52:44;;;;;;;8.45;4.63;;;;;;;18.09;58.19;99111.78;5055229;28;20443;-77
2022/05/30 06:55:10;;;;;;;4.35;3.95;;;;;;;17.61;58.83;99096.50;5054701;28;20049;-77
2022/05/30 07:00:20;;;;;;;6.90;4.32;;;;;;;16.77;61.15;99109.59;5054686;28;20094;-77
2022/05/30 07:02:46;;;;;;;12.35;3.95;;;;;;;16.43;62.21;99106.16;5054819;28;20025;-77
2022/05/30 07:05:11;;;;;;;5.47;4.15;;;;;;;16.28;63.45;99108.22;5054845;28;20036;-77
2022/05/30 07:07:41;;;;;;;6.22;4.00;;;;;;;16.23;63.63;99118.25;5054960;28;20431;-77
2022/05/30 07:10:07;;;;;;;7.38;4.20;;;;;;;16.21;63.83;99118.34;5036799;28;20029;-77
2022/05/30 07:12:33;;;;;;;7.95;3.92;;;;;;;16.33;63.67;99113.94;5054739;28;20427;-77
2022/05/30 07:14:58;;;;;;;5.43;3.50;;;;;;;16.57;63.17;99123.47;5054616;28;20032;-77
2022/05/30 07:17:25;;;;;;;9.10;4.22;;;;;;;16.94;62.75;99114.31;5054310;28;20353;-77
2022/05/30 07:19:51;;;;;;;5.97;4.00;;;;;;;17.43;60.59;99112.06;5054809;28;20033;-77
2022/05/30 07:22:17;;;;;;;5.50;3.83;;;;;;;17.59;59.54;99122.16;5054341;28;20528;-77
2022/05/30 07:24:43;;;;;;;5.45;3.85;;;;;;;17.58;58.96;99118.69;5054448;28;20111;-77
2022/05/30 07:27:08;;;;;;;7.55;3.92;;;;;;;17.69;57.99;99123.88;5054269;28;20514;-77
2022/05/30 07:29:34;;;;;;;6.85;3.90;;;;;;;17.49;57.89;99119.47;5054648;28;20075;-77
2022/05/30 07:32:00;;;;;;;7.35;3.67;;;;;;;17.25;58.39;99124.13;5036307;28;20027;-77
2022/05/30 07:34:26;;;;;;;4.70;3.70;;;;;;;16.98;59.24;99127.19;5054224;28;20025;-77
2022/05/30 07:36:53;;;;;;;4.38;3.55;;;;;;;16.66;60.31;99118.31;5054489;28;20523;-77
2022/05/30 07:39:18;;;;;;;7.47;3.67;;;;;;;16.28;61.49;99102.94;5053981;28;20034;-77
2022/05/30 07:41:44;;;;;;;3.63;3.05;;;;;;;16.16;62.71;99123.13;5054137;28;20036;-77
2022/05/30 07:44:09;;;;;;;4.15;3.20;;;;;;;15.91;63.24;99118.13;5053932;28;20032;-77
2022/05/30 07:46:35;;;;;;;5.90;3.40;;;;;;;15.72;64.24;99118.69;5054321;28;20021;-77
2022/05/30 07:49:01;;;;;;;4.10;3.25;;;;;;;15.59;65.18;99129.25;5053744;28;20025;-77
2022/05/30 07:51:27;;;;;;;5.22;3.00;;;;;;;15.48;66.28;99123.97;5054149;28;20488;-77
2022/05/30 07:53:52;;;;;;;6.00;3.30;;;;;;;15.49;67.04;99138.78;5053760;28;20033;-77
2022/05/30 07:56:18;;;;;;;5.85;3.28;;;;;;;15.41;67.29;99131.47;5035766;28;20061;-77
2022/05/30 07:58:44;;;;;;;4.82;3.33;;;;;;;15.40;67.75;99132.41;5053774;28;20421;-77
2022/05/30 08:01:16;;;;;;;5.25;3.10;;;;;;;15.50;68.11;99140.44;5053472;28;20032;-77
2022/05/30 08:03:42;;;;;;;4.57;2.97;;;;;;;15.59;67.83;99138.91;5053969;28;20095;-77
2022/05/30 08:06:13;;;;;;;4.95;3.10;;;;;;;15.68;67.69;99140.88;5035459;28;20025;-77
2022/05/30 08:08:40;;;;;;;4.22;2.65;;;;;;;15.99;66.65;99142.00;5053558;28;20377;-77
2022/05/30 08:11:06;;;;;;;2.85;2.53;;;;;;;16.31;65.33;99150.03;5053423;28;20021;-77
2022/05/30 08:13:31;;;;;;;3.85;2.60;;;;;;;16.36;64.65;99145.22;5053392;28;20053;-78
2022/05/30 08:15:57;;;;;;;5.40;2.95;;;;;;;16.35;64.13;99142.72;5053685;28;20025;-77
2022/05/30 08:18:22;;;;;;;2.88;2.17;;;;;;;16.38;63.84;99143.31;5053174;28;20029;-77
2022/05/30 08:20:48;;;;;;;4.10;2.80;;;;;;;16.62;63.85;99148.44;5053542;28;20408;-77
2022/05/30 08:23:14;;;;;;;6.85;3.30;;;;;;;16.77;64.06;99137.66;5053061;28;20033;-77
2022/05/30 08:25:40;;;;;;;5.32;3.00;;;;;;;16.88;62.85;99146.38;5053371;28;20040;-77
2022/05/30 08:28:06;;;;;;;4.43;2.58;;;;;;;17.06;62.10;99151.94;5053006;28;20508;-77
2022/05/30 08:30:31;;;;;;;4.10;2.75;;;;;;;17.11;61.95;99154.22;5053447;28;20108;-77
2022/05/30 08:32:57;;;;;;;3.35;2.90;;;;;;;17.15;61.98;99139.81;5053590;28;20068;-78
2022/05/30 08:35:23;;;;;;;4.88;3.20;;;;;;;17.17;62.54;99146.63;5052828;28;20021;-77
2022/05/30 08:37:49;;;;;;;5.28;2.97;;;;;;;17.20;62.53;99150.81;5053125;28;20113;-78
2022/05/30 08:43:35;;;;;;;4.13;2.92;;;;;;;17.48;61.48;99153.78;5052756;28;20126;-77
2022/05/30 08:46:08;;;;;;;4.50;2.80;;;;;;;17.53;61.25;99147.22;5053003;28;20028;-77
2022/05/30 08:48:46;;;;;;;3.95;2.60;;;;;;;17.65;60.37;99143.50;5052845;28;20039;-77
2022/05/30 08:51:45;;;;;;;3.45;2.40;;;;;;;17.71;60.13;99160.63;5052558;28;20021;-77
2022/05/30 08:54:43;;;;;;;3.20;2.30;;;;;;;17.63;59.66;99145.47;5034615;28;21430;-77
2022/05/30 08:57:32;;;;;;;4.32;3.05;;;;;;;17.73;59.31;99157.84;4990915;28;20441;-78
2022/05/30 09:00:01;;;;;;;4.13;2.53;;;;;;;17.73;59.41;99163.13;4970871;28;20491;-77
2022/05/30 09:02:34;;;;;;;3.67;2.58;;;;;;;17.67;58.48;99156.56;4971569;28;20042;-77
2022/05/30 09:05:10;;;;;;;3.13;2.50;;;;;;;17.56;56.80;99160.09;4971384;28;20054;-77
2022/05/30 09:07:43;;;;;;;4.18;2.72;;;;;;;17.65;57.69;99155.84;4971751;28;20042;-77
2022/05/30 09:10:16;;;;;;;3.53;2.15;;;;;;;17.80;58.59;99157.25;4971090;28;20062;-77
2022/05/30 09:13:06;;;;;;;3.65;2.50;;;;;;;17.96;57.79;99159.44;4971317;28;20063;-77
2022/05/30 09:15:42;;;;;;;3.13;2.30;;;;;;;18.00;57.24;99141.56;4971146;28;20524;-77
2022/05/30 09:18:17;;;;;;;2.88;2.05;;;;;;;18.11;57.79;99147.56;4971268;28;20253;-77
2022/05/30 09:20:43;;;;;;;2.30;2.10;;;;;;;18.21;56.71;99160.81;4971205;28;20039;-77
2022/05/30 09:23:10;;;;;;;2.30;2.08;;;;;;;18.16;55.37;99162.97;4971151;28;20046;-77
2022/05/30 09:26:00;;;;;;;3.97;2.42;;;;;;;18.16;55.51;99165.59;4971037;28;20043;-77
2022/05/30 09:28:34;;;;;;;2.97;2.00;;;;;;;18.10;54.97;99163.50;4971108;28;20050;-77
2022/05/30 09:31:17;;;;;;;3.05;2.08;;;;;;;18.18;56.75;99168.97;4971063;28;20410;-77
2022/05/30 09:33:47;;;;;;;3.88;2.22;;;;;;;18.27;55.95;99172.59;4988505;28;20165;-77
2022/05/30 09:36:15;;;;;;;2.53;2.10;;;;;;;18.35;56.30;99162.25;5000131;28;20036;-77
2022/05/30 09:39:14;;;;;;;2.40;2.20;;;;;;;18.45;56.29;99165.72;5052038;28;20053;-77
2022/05/30 09:41:39;;;;;;;3.40;2.10;;;;;;;18.36;56.80;99159.47;4990327;28;20093;-77
2022/05/30 09:44:27;;;;;;;3.30;2.10;;;;;;;18.26;56.90;99163.03;4990316;28;20035;-77
2022/05/30 09:46:57;;;;;;;2.88;2.30;;;;;;;18.17;55.76;99162.03;4990097;28;20039;-77
2022/05/30 09:49:35;;;;;;;5.33;2.10;;;;;;;18.07;55.97;99159.31;4990008;28;20037;-77
2022/05/30 09:52:04;;;;;;;2.45;2.10;;;;;;;17.98;55.85;99157.47;4990216;28;20045;-77
2022/05/30 09:54:33;;;;;;;3.80;2.40;;;;;;;18.08;55.98;99170.72;4973330;28;20478;-76
2022/05/30 09:57:25;;;;;;;3.85;2.50;;;;;;;18.02;56.92;99155.41;4990221;28;20038;-76
2022/05/30 09:59:53;;;;;;;3.75;2.45;;;;;;;18.08;57.34;99153.13;4989948;28;20524;-76
2022/05/30 10:02:37;;;;;;;3.17;2.30;;;;;;;18.02;57.24;99137.81;4989913;28;20031;-76
2022/05/30 10:05:20;;;;;;;4.15;2.40;;;;;;;17.93;57.21;99163.16;4990261;28;20051;-76
2022/05/30 10:07:54;;;;;;;5.38;2.88;;;;;;;17.74;57.31;99148.97;4990199;28;20136;-76
2022/05/30 10:10:22;;;;;;;3.83;2.58;;;;;;;17.75;57.09;99151.53;4989812;28;20223;-76
2022/05/30 10:12:58;;;;;;;4.78;2.63;;;;;;;17.77;57.24;99149.59;4993705;28;20030;-76
2022/05/30 10:15:35;;;;;;;7.40;2.42;;;;;;;17.70;57.05;99146.63;4993799;28;20474;-76
2022/05/30 10:18:13;;;;;;;4.95;2.60;;;;;;;17.71;57.90;99148.28;5016570;28;20037;-76
2022/05/30 10:20:41;;;;;;;2.72;2.40;;;;;;;17.70;57.54;99145.78;5055569;28;20059;-76
2022/05/30 10:29:02;;;;;;;2.42;2.20;;;;;;;17.71;56.38;99136.91;5055471;28;20480;-76
2022/05/30 10:31:39;;;;;;;2.58;2.13;;;;;;;17.66;56.13;99147.00;5055576;28;20433;-76
2022/05/30 10:34:29;;;;;;;3.50;2.30;;;;;;;17.65;56.69;99148.78;5055463;28;20028;-77
2022/05/30 10:37:00;;;;;;;3.05;2.30;;;;;;;17.73;56.52;99148.16;5055912;28;20029;-76
2022/05/30 10:39:48;;;;;;;2.40;2.20;;;;;;;17.81;56.19;99139.63;5055224;28;20036;-76
2022/05/30 10:42:23;;;;;;;3.60;2.40;;;;;;;17.99;55.66;99159.13;5037255;28;20021;-77
2022/05/30 10:44:57;;;;;;;4.47;1.95;;;;;;;17.95;55.78;99163.88;5055137;28;20037;-76
2022/05/30 10:47:40;;;;;;;3.92;2.28;;;;;;;17.92;55.63;99158.00;5054989;28;20021;-76
2022/05/30 10:50:23;;;;;;;3.50;1.92;;;;;;;17.98;55.76;99161.91;5055161;28;20468;-76
2022/05/30 10:52:52;;;;;;;5.70;2.10;;;;;;;18.00;55.80;99155.56;5055157;28;20032;-76
2022/05/30 10:55:29;;;;;;;3.72;2.13;;;;;;;18.00;56.04;99158.19;5054697;28;20124;-76
2022/05/30 10:58:10;;;;;;;3.25;2.00;;;;;;;17.99;54.15;99161.78;5055086;28;20063;-76
2022/05/30 11:00:50;;;;;;;2.72;2.10;;;;;;;17.91;54.28;99154.53;5054954;28;20033;-76
2022/05/30 11:03:23;;;;;;;3.40;2.20;;;;;;;17.87;54.57;99154.94;5054813;28;20033;-76
2022/05/30 11:06:16;;;;;;;2.45;2.00;;;;;;;17.76;53.96;99160.28;5054850;28;20275;-76
2022/05/30 11:08:50;;;;;;;3.50;2.45;;;;;;;17.62;54.98;99154.34;5054799;28;20033;-76
2022/05/30 11:12:03;;;;;;;3.30;2.28;;;;;;;17.51;54.77;99150.91;5054735;28;20025;-76
2022/05/30 11:14:47;;;;;;;2.58;2.03;;;;;;;17.38;53.71;99156.38;4992580;28;20563;-76
2022/05/30 11:17:26;;;;;;;2.63;2.00;;;;;;;17.23;54.19;99144.44;4993330;28;20491;-76
2022/05/30 11:20:17;;;;;;;4.00;2.15;;;;;;;17.21;55.18;99145.44;4993031;28;20026;-76
2022/05/30 11:22:47;;;;;;;3.55;2.00;;;;;;;17.14;55.51;99141.63;4992135;28;20070;-76
2022/05/30 11:25:15;;;;;;;5.28;2.22;;;;;;;17.10;55.26;99136.72;4992773;28;20129;-77
2022/05/30 11:27:59;;;;;;;3.45;2.47;;;;;;;17.09;55.44;99145.59;4992550;28;20109;-76
2022/05/30 11:30:51;;;;;;;3.80;1.77;;;;;;;17.09;55.33;99151.69;4992513;28;20554;-76
2022/05/30 11:33:28;;;;;;;3.17;1.80;;;;;;;17.08;55.00;99147.38;4992696;28;20217;-76
2022/05/30 11:35:59;;;;;;;3.63;2.35;;;;;;;17.08;54.73;99160.53;4992489;28;20394;-76
2022/05/30 11:38:27;;;;;;;4.80;1.95;;;;;;;17.04;53.90;99150.41;4992314;28;20038;-76
2022/05/30 11:41:21;;;;;;;2.40;1.88;;;;;;;17.01;53.17;99148.00;4992511;28;20034;-76
2022/05/30 11:44:14;;;;;;;1.88;1.70;;;;;;;17.09;55.22;99138.53;4992436;28;20046;-76
2022/05/30 11:46:57;;;;;;;3.20;1.98;;;;;;;17.17;55.69;99135.28;4975964;28;20037;-76
2022/05/30 11:49:37;;;;;;;4.03;2.22;;;;;;;17.34;55.50;99139.16;4992073;28;20033;-76
2022/05/30 11:52:34;;;;;;;6.15;1.83;;;;;;;17.31;54.17;99131.50;5052138;28;20099;-76
2022/05/30 11:55:22;;;;;;;2.17;1.60;;;;;;;17.33;54.63;99117.25;5053742;28;20087;-76
2022/05/30 11:58:04;;;;;;;2.42;2.22;;;;;;;17.48;53.06;99119.56;5036136;28;20393;-77
2022/05/30 12:00:40;;;;;;;4.57;2.08;;;;;;;17.59;51.09;99133.50;5053673;28;20115;-76
2022/05/30 12:03:35;;;;;;;3.42;1.92;;;;;;;17.53;50.65;99138.44;5053953;28;20021;-76
2022/05/30 12:06:01;;;;;;;2.35;1.60;;;;;;;17.54;50.21;99132.25;4992116;28;20125;-76
2022/05/30 12:09:02;;;;;;;1.98;1.60;;;;;;;17.65;51.07;99134.78;4991787;28;20125;-76
2022/05/30 12:11:42;;;;;;;2.00;1.58;;;;;;;17.91;51.32;99140.53;4991787;28;20039;-76